首页
METAR-TAF:

METAR-TAF

机场 :

空军基地

Salon-de-Provence, 法国

纬度: 43-36N, 经度: 005-06E, 海拔: 59米

当前天气观测

该预报发布于22分钟前的18:30 UTC
风速4节,风向,在南转南东西南之间变化
温度 28°C
湿度 62%
气压 1020 hPa
能见度10公里或以上
1500米以下无云,无积雨云

METAR: LFMY 221830Z AUTO 19004KT 150V220 CAVOK 28/20 Q1020

时间: 20:52 (18:52 UTC)

预报

该预报发布于4小时和52分钟前的14:00 UTC
预报有效从22日的 15点(UTC)到 23日的 15点(UTC)
风速12节,风向南转西南
能见度10公里或以上
1500米以下无云,无积雨云
成为
从 22日的 18点(UTC)到 22日的 20点(UTC)
风速2节,风向多变
成为
从 23日的 08点(UTC)到 23日的 10点(UTC)
风速10节,风向南转西南

TAF: LFMY 221400Z 2215/2315 21012KT CAVOK BECMG 2218/2220 VRB02KT BECMG 2308/2310 20010KT

超过4000个机场的气象观测和天气预报(METAR&TAF报告)。

可查询的气象台以黄色和红色小点在地图上表示。

将鼠标移到小点上方,可查看气象台名称。

然后点击查看天气观测和预报。

如需切换地图:点击带黑十字的绿色按钮放大地图;点击带横线的绿色按钮缩小地图;或者点击绿色箭头查看邻近地区的地图。


METAR-TAF: